Merida, Mexico

12:09 PM CST on February 27, 2017 (GMT -0600)
Lic Manuel Crecencio Rejon | | Change Station

Elev 33 ft 20.98 °N, 89.65 °W | Updated 24 minutes ago

Mostly Cloudy
Mostly Cloudy
91 °F
Feels Like 93 °F
N
13
Wind Variable Wind from East
Gusts 25 mph

Today
High -- | Low -- °F
--% Chance of Precip.
Yesterday
High -- | Low -- °F
Precip. -- in
Pressure 30.02 in
Visibility 7.0 miles
Clouds Mostly Cloudy 2000 ft
Heat Index 93 °F
Dew Point 64 °F
Humidity 41%
Rainfall 0.00 in
Snow Depth Not available.
6:20 AM 6:02 PM
New Moon, 2% visible
METAR MMMD 271745Z 08011G22KT 7SM BKN020 33/18 A3001 RMK SLP165 57012 902 8/100
Pressure 30.02 in
Visibility 7.0 miles
Clouds Mostly Cloudy 2000 ft
Heat Index 93 °F
Dew Point 64 °F
Humidity 41%
Rainfall 0.00 in
Snow Depth Not available.
6:20 AM 6:02 PM
New Moon, 2% visible
METAR MMMD 271745Z 08011G22KT 7SM BKN020 33/18 A3001 RMK SLP165 57012 902 8/100

Get Your Daily Forecast Email!

Thanks for signing up!

Be on the lookout for a verification email in your inbox.

You'll start receiving the daily forecast at 8 AM.

×

10-Day Weather Forecast

No radar image for this location.
×

Almanac

Astronomy

Feb. 27, 2017 Rise Set
Actual Time
Civil Twilight
Nautical Twilight
Astronomical Twilight
Moon
Length of Visible Light
Length of Day
Tomorrow will be .
, % of the Moon is Illuminated

Today's Extremes

Country Highs Country Lows

Community

WunderPhotos

Upload Photos

1,962,540 photos uploaded!

WunderBlog® & News

Nearby

Air Quality

  Air Quality AQ Index Pollutant
Not available.

Snow Depth

Station Depth Elevation

Earthquake Activity

City Distance Mag. Time & Date
Minimum magnitude displayed is 2.5.

Coastal Water Temperatures

Place Temperature

Stations

Nearby Weather Stations

Station Location Temp. Windchill Dew Point Humidity Wind Precip. Elev Updated Type